Time;durP1;ratioP1;P1;durP2;ratioP2;P2;SDS_P1;SDS_P2;PMS_P1;PMS_P2;Temp;Humidity;BMP_temperature;BMP_pressure;BME280_temperature;BME280_humidity;BME280_pressure;Samples;Min_cycle;Max_cycle;Signal;HPM_P1;HPM_P2
2022/09/06 00:01:16;;;;;;;0.47;0.40;;;21.30;90.80;;;;;;4957181;28;20182;-87
2022/09/06 00:03:42;;;;;;;;;;;21.30;90.90;;;;;;4976348;28;20047;-86
2022/09/06 00:06:15;;;;;;;0.30;0.30;;;21.30;91.30;;;;;;4960492;28;19922;-87
2022/09/06 00:08:42;;;;;;;0.38;0.38;;;21.20;90.90;;;;;;4976624;28;20047;-87
2022/09/06 00:11:08;;;;;;;0.50;0.50;;;21.20;90.80;;;;;;4959314;28;20089;-87
2022/09/06 00:13:34;;;;;;;0.55;0.55;;;21.10;91.00;;;;;;4909932;29;20188;-87
2022/09/06 00:16:08;;;;;;;0.52;0.50;;;21.10;90.90;;;;;;4957576;28;20050;-87
2022/09/06 00:18:33;;;;;;;0.60;0.60;;;21.10;91.20;;;;;;4977092;28;20382;-87
2022/09/06 00:20:59;;;;;;;0.32;0.25;;;21.10;91.00;;;;;;4959608;28;20053;-87
2022/09/06 00:23:25;;;;;;;0.43;0.43;;;21.10;91.20;;;;;;4943080;28;20042;-87
2022/09/06 00:25:50;;;;;;;0.40;0.40;;;21.00;91.10;;;;;;4931861;28;20062;-87
2022/09/06 00:28:16;;;;;;;0.75;0.75;;;21.00;91.20;;;;;;4946765;28;20050;-88
2022/09/06 00:30:41;;;;;;;0.30;0.30;;;21.00;91.30;;;;;;4954142;28;20039;-87
2022/09/06 00:33:07;;;;;;;0.40;0.40;;;21.00;91.50;;;;;;4959141;28;20047;-87
2022/09/06 00:35:33;;;;;;;0.65;0.57;;;21.00;91.30;;;;;;4959895;28;20098;-87
2022/09/06 00:38:00;;;;;;;0.88;0.73;;;21.00;91.30;;;;;;4976183;28;20043;-87
2022/09/06 00:40:28;;;;;;;0.73;0.52;;;20.90;91.30;;;;;;4976399;28;20039;-87
2022/09/06 00:42:55;;;;;;;0.30;0.30;;;20.90;91.70;;;;;;4942747;28;20050;-87
2022/09/06 00:45:22;;;;;;;0.50;0.50;;;20.90;91.70;;;;;;4977844;28;20063;-87
2022/09/06 00:47:48;;;;;;;0.63;0.63;;;20.80;91.80;;;;;;4943452;28;20100;-87
2022/09/06 00:50:17;;;;;;;0.40;0.40;;;20.80;91.90;;;;;;4976298;28;20046;-87
2022/09/06 00:52:46;;;;;;;0.45;0.45;;;20.70;92.30;;;;;;4975620;28;20118;-86
2022/09/06 00:55:12;;;;;;;0.70;0.70;;;20.70;92.40;;;;;;4975901;28;20085;-87
2022/09/06 00:57:38;;;;;;;1.10;0.70;;;20.60;92.30;;;;;;4943601;28;20090;-87
2022/09/06 01:00:07;;;;;;;0.60;0.60;;;20.50;92.50;;;;;;4975867;28;20282;-87
2022/09/06 01:02:33;;;;;;;0.60;0.60;;;20.50;92.90;;;;;;4959083;28;20430;-87
2022/09/06 01:04:59;;;;;;;0.85;0.43;;;20.50;92.80;;;;;;4974983;28;20054;-87
2022/09/06 01:07:30;;;;;;;0.52;0.52;;;20.50;93.10;;;;;;4959405;28;20564;-87
2022/09/06 01:10:22;;;;;;;0.60;0.50;;;20.40;93.00;;;;;;4958731;28;20062;-87
2022/09/06 01:12:57;;;;;;;0.40;0.40;;;20.40;93.00;;;;;;4970316;28;20065;-86
2022/09/06 01:15:33;;;;;;;0.30;0.30;;;20.30;93.30;;;;;;4958360;28;20101;-87
2022/09/06 01:18:05;;;;;;;0.60;0.60;;;20.20;93.30;;;;;;4975818;28;20472;-87
2022/09/06 01:20:33;;;;;;;0.35;0.35;;;20.20;93.70;;;;;;4958987;28;20046;-87
2022/09/06 01:23:30;;;;;;;1.23;0.52;;;20.20;94.00;;;;;;4957364;28;20046;-86
2022/09/06 01:26:01;;;;;;;0.63;0.50;;;20.10;94.30;;;;;;4940303;29;20051;-87
2022/09/06 01:28:38;;;;;;;0.57;0.57;;;20.00;94.00;;;;;;4923911;29;20139;-87
2022/09/06 01:31:18;;;;;;;0.43;0.43;;;20.00;94.10;;;;;;4956231;29;20047;-87
2022/09/06 01:33:47;;;;;;;0.52;0.50;;;20.00;94.40;;;;;;4952476;28;20401;-87
2022/09/06 01:36:16;;;;;;;0.50;0.50;;;20.00;94.50;;;;;;4974002;28;20509;-87
2022/09/06 01:38:41;;;;;;;0.47;0.35;;;19.90;95.00;;;;;;4958264;28;20053;-87
2022/09/06 01:41:07;;;;;;;0.52;0.50;;;19.90;94.60;;;;;;4975148;28;20050;-86
2022/09/06 01:43:37;;;;;;;0.40;0.40;;;19.80;94.80;;;;;;4957693;28;20039;-86
2022/09/06 01:46:24;;;;;;;0.40;0.40;;;19.90;95.30;;;;;;4959892;28;20049;-87
2022/09/06 01:48:59;;;;;;;0.50;0.50;;;19.90;95.70;;;;;;4958080;28;20047;-86
2022/09/06 01:51:46;;;;;;;0.45;0.45;;;19.80;95.30;;;;;;4941926;28;20094;-87
2022/09/06 01:54:24;;;;;;;0.70;0.70;;;19.80;95.70;;;;;;4956545;28;20039;-87
2022/09/06 01:57:13;;;;;;;0.63;0.40;;;19.80;95.40;;;;;;4972529;28;20121;-87
2022/09/06 02:00:03;;;;;;;0.63;0.40;;;19.70;96.40;;;;;;4932748;28;20078;-87
2022/09/06 02:02:41;;;;;;;0.80;0.80;;;19.80;96.40;;;;;;4958126;28;20050;-87
2022/09/06 02:05:49;;;;;;;0.38;0.28;;;19.70;95.90;;;;;;4956744;28;20408;-87
2022/09/06 02:08:22;;;;;;;0.32;0.32;;;19.70;96.70;;;;;;4947706;28;20085;-87
2022/09/06 02:10:54;;;;;;;0.40;0.40;;;19.70;96.10;;;;;;4974856;28;20111;-87
2022/09/06 02:13:23;;;;;;;1.27;0.38;;;19.70;96.10;;;;;;4973935;28;20131;-87
2022/09/06 02:15:57;;;;;;;0.40;0.40;;;19.70;96.20;;;;;;4973891;28;20129;-87
2022/09/06 02:18:30;;;;;;;0.70;0.57;;;19.80;96.60;;;;;;4975150;28;20125;-87
2022/09/06 02:20:57;;;;;;;0.45;0.45;;;19.70;96.60;;;;;;4974466;28;20054;-86
2022/09/06 02:23:27;;;;;;;0.57;0.50;;;19.60;96.70;;;;;;4941156;28;20049;-87
2022/09/06 02:25:58;;;;;;;0.40;0.40;;;19.60;97.00;;;;;;4941271;28;20074;-87
2022/09/06 02:28:24;;;;;;;0.40;0.40;;;19.60;96.80;;;;;;4974930;28;20439;-87
2022/09/06 02:30:55;;;;;;;;;;;19.60;97.00;;;;;;4948517;28;20047;-87
2022/09/06 02:33:24;;;;;;;1.52;0.60;;;19.50;97.80;;;;;;4957366;28;20016;-87
2022/09/06 02:35:52;;;;;;;0.95;0.50;;;19.50;96.60;;;;;;4973814;28;20101;-87
2022/09/06 02:38:22;;;;;;;0.50;0.45;;;19.40;96.40;;;;;;4941306;28;20402;-87
2022/09/06 02:40:50;;;;;;;0.50;0.50;;;19.40;96.70;;;;;;4941317;28;20065;-87
2022/09/06 02:43:16;;;;;;;1.02;0.40;;;19.30;96.90;;;;;;4972775;28;20066;-87
2022/09/06 02:45:42;;;;;;;0.60;0.55;;;19.30;97.40;;;;;;4973996;28;20047;-87
2022/09/06 02:48:07;;;;;;;1.27;0.63;;;19.30;97.50;;;;;;4956621;28;20043;-87
2022/09/06 02:50:33;;;;;;;0.30;0.30;;;19.30;97.10;;;;;;4973217;28;20396;-87
2022/09/06 02:53:09;;;;;;;0.32;0.30;;;19.30;97.40;;;;;;4941041;28;20054;-86
2022/09/06 02:55:35;;;;;;;1.13;0.60;;;19.30;97.80;;;;;;4956580;28;20082;-87
2022/09/06 02:58:01;;;;;;;0.75;0.63;;;19.30;97.40;;;;;;4972760;28;20051;-86
2022/09/06 03:00:28;;;;;;;0.52;0.52;;;19.20;97.20;;;;;;4956925;28;20051;-87
2022/09/06 03:02:54;;;;;;;;;;;19.10;97.60;;;;;;4957055;28;20098;-87
2022/09/06 03:05:21;;;;;;;1.40;0.73;;;19.10;98.40;;;;;;4955375;28;19926;-87
2022/09/06 03:07:48;;;;;;;0.40;0.28;;;19.00;98.10;;;;;;4974210;28;20043;-87
2022/09/06 03:10:13;;;;;;;0.45;0.45;;;19.00;97.90;;;;;;4973593;28;20047;-86
2022/09/06 03:12:41;;;;;;;0.85;0.65;;;19.00;98.00;;;;;;4940754;28;20050;-87
2022/09/06 03:15:08;;;;;;;0.55;0.43;;;19.00;98.30;;;;;;4973461;28;20060;-86
2022/09/06 03:17:34;;;;;;;1.77;0.63;;;19.00;98.20;;;;;;4955455;28;20055;-87
2022/09/06 03:20:00;;;;;;;0.52;0.52;;;18.90;98.10;;;;;;4937826;29;20047;-87
2022/09/06 03:22:25;;;;;;;0.50;0.50;;;18.90;98.60;;;;;;4940906;28;20410;-87
2022/09/06 03:24:51;;;;;;;0.93;0.40;;;18.90;99.00;;;;;;4973911;28;20042;-87
2022/09/06 03:27:17;;;;;;;0.28;0.28;;;18.90;99.10;;;;;;4969760;28;20303;-87
2022/09/06 03:29:42;;;;;;;0.57;0.57;;;18.90;98.70;;;;;;4939738;28;20043;-87
2022/09/06 03:32:08;;;;;;;0.40;0.40;;;18.90;99.30;;;;;;4955686;28;20309;-86
2022/09/06 03:34:34;;;;;;;0.50;0.30;;;18.90;99.50;;;;;;4956529;28;20306;-87
2022/09/06 03:36:59;;;;;;;1.23;0.70;;;18.90;99.70;;;;;;4955627;28;20059;-88
2022/09/06 03:39:25;;;;;;;0.43;0.43;;;18.90;99.60;;;;;;4940003;28;20047;-87
2022/09/06 03:41:50;;;;;;;1.25;0.68;;;18.90;99.70;;;;;;4973786;28;20089;-87
2022/09/06 03:44:16;;;;;;;0.83;0.50;;;18.90;99.50;;;;;;4972082;28;20093;-87
2022/09/06 03:46:42;;;;;;;0.40;0.40;;;18.80;99.60;;;;;;4971611;28;20310;-87
2022/09/06 03:49:09;;;;;;;0.43;0.43;;;18.80;99.50;;;;;;4956210;28;20298;-85
2022/09/06 03:51:35;;;;;;;0.55;0.45;;;18.80;99.30;;;;;;4973636;28;20089;-87
2022/09/06 03:54:00;;;;;;;0.63;0.63;;;18.80;99.60;;;;;;4973318;28;20078;-87
2022/09/06 03:56:26;;;;;;;0.80;0.60;;;18.80;99.30;;;;;;4955251;28;20051;-87
2022/09/06 03:58:52;;;;;;;0.50;0.50;;;18.80;99.60;;;;;;4953533;28;20047;-87
2022/09/06 04:01:18;;;;;;;0.60;0.60;;;18.80;99.70;;;;;;4936828;29;20414;-87
2022/09/06 04:03:44;;;;;;;0.30;0.30;;;18.80;99.70;;;;;;4954896;28;20043;-86
2022/09/06 04:06:10;;;;;;;0.60;0.60;;;18.80;99.60;;;;;;4955154;28;20046;-86
2022/09/06 04:08:36;;;;;;;0.40;0.40;;;18.70;99.50;;;;;;4956329;28;20061;-87
2022/09/06 04:11:03;;;;;;;;;;;18.70;99.10;;;;;;4956797;28;20050;-87
2022/09/06 04:13:30;;;;;;;0.45;0.30;;;18.70;99.90;;;;;;4955710;28;19922;-87
2022/09/06 04:15:55;;;;;;;0.43;0.30;;;18.60;99.10;;;;;;4940308;28;20058;-86
2022/09/06 04:18:21;;;;;;;0.20;0.20;;;18.60;99.20;;;;;;4954234;28;20126;-86
2022/09/06 04:20:49;;;;;;;0.73;0.65;;;18.60;99.20;;;;;;4956155;28;20050;-87
2022/09/06 04:23:15;;;;;;;0.82;0.63;;;18.60;99.60;;;;;;4972178;28;20469;-85
2022/09/06 04:25:45;;;;;;;1.25;0.40;;;18.60;99.70;;;;;;4956396;28;20051;-87
2022/09/06 04:28:11;;;;;;;0.30;0.30;;;18.70;99.90;;;;;;4952359;28;20401;-87
2022/09/06 04:30:36;;;;;;;0.85;0.40;;;18.70;99.90;;;;;;4936497;29;20047;-87
2022/09/06 04:33:02;;;;;;;0.63;0.63;;;18.80;99.90;;;;;;4922719;28;20129;-87
2022/09/06 04:35:27;;;;;;;1.67;0.68;;;18.80;99.90;;;;;;4955385;28;20846;-87
2022/09/06 04:37:53;;;;;;;0.50;0.50;;;18.80;99.90;;;;;;4938732;28;20054;-87
2022/09/06 04:40:19;;;;;;;0.40;0.40;;;18.80;99.90;;;;;;4971432;28;20047;-86
2022/09/06 04:42:44;;;;;;;0.32;0.32;;;18.80;99.90;;;;;;4955930;28;20051;-87
2022/09/06 04:45:10;;;;;;;0.77;0.57;;;18.80;99.90;;;;;;4972066;28;20047;-87
2022/09/06 04:47:36;;;;;;;0.38;0.30;;;18.80;99.90;;;;;;4933871;28;20050;-86
2022/09/06 04:50:03;;;;;;;0.47;0.47;;;18.80;99.90;;;;;;4975086;28;20508;-86
2022/09/06 04:52:28;;;;;;;0.68;0.68;;;18.80;99.90;;;;;;4941530;28;20374;-87
2022/09/06 04:54:54;;;;;;;0.63;0.63;;;18.80;99.90;;;;;;4975030;28;20045;-87
2022/09/06 04:57:19;;;;;;;0.67;0.50;;;18.70;99.90;;;;;;4956595;28;20741;-86
2022/09/06 04:59:45;;;;;;;0.80;0.65;;;18.60;99.90;;;;;;4973143;28;20059;-87
2022/09/06 05:02:11;;;;;;;0.60;0.60;;;18.70;99.90;;;;;;4957641;28;20477;-87
2022/09/06 05:04:36;;;;;;;0.55;0.55;;;18.60;99.90;;;;;;4974390;28;20607;-86
2022/09/06 05:07:03;;;;;;;1.07;0.87;;;18.60;99.90;;;;;;4973983;28;21386;-86
2022/09/06 05:09:30;;;;;;;1.77;0.80;;;18.60;99.90;;;;;;4939943;28;20291;-87
2022/09/06 05:11:56;;;;;;;0.60;0.60;;;18.60;99.90;;;;;;4974918;28;20162;-87
2022/09/06 05:14:22;;;;;;;0.82;0.50;;;18.60;99.90;;;;;;4964916;28;20125;-86
2022/09/06 05:16:49;;;;;;;0.65;0.47;;;18.60;99.90;;;;;;4957598;28;20047;-86
2022/09/06 05:19:15;;;;;;;0.50;0.40;;;18.60;99.90;;;;;;4956175;28;20081;-86
2022/09/06 05:21:41;;;;;;;0.35;0.35;;;18.60;99.90;;;;;;4958456;28;20148;-86
2022/09/06 05:24:06;;;;;;;0.65;0.60;;;18.60;99.90;;;;;;4957523;28;20490;-86
2022/09/06 05:26:32;;;;;;;1.40;0.35;;;18.60;99.90;;;;;;4954963;28;20046;-86
2022/09/06 05:28:58;;;;;;;0.93;0.82;;;18.50;99.90;;;;;;4952151;28;20035;-87
2022/09/06 05:31:30;;;;;;;0.35;0.35;;;18.50;99.90;;;;;;4970038;28;20047;-86
2022/09/06 05:33:56;;;;;;;0.73;0.70;;;18.50;99.90;;;;;;4974486;28;20038;-86
2022/09/06 05:36:23;;;;;;;0.65;0.65;;;18.50;99.90;;;;;;4972574;28;20053;-85
2022/09/06 05:38:53;;;;;;;0.82;0.40;;;18.50;99.90;;;;;;4956482;28;20390;-86
2022/09/06 05:41:20;;;;;;;0.77;0.60;;;18.40;99.90;;;;;;4970254;28;20425;-86
2022/09/06 05:43:47;;;;;;;0.95;0.75;;;18.40;99.90;;;;;;4973240;28;20506;-87
2022/09/06 05:46:13;;;;;;;0.50;0.50;;;18.40;99.90;;;;;;4974180;28;20039;-87
2022/09/06 05:48:39;;;;;;;1.35;0.90;;;18.40;99.90;;;;;;4955589;28;20130;-86
2022/09/06 05:51:11;;;;;;;1.65;0.73;;;18.40;99.90;;;;;;4973466;28;20050;-86
2022/09/06 05:53:42;;;;;;;0.55;0.52;;;18.40;99.90;;;;;;4956842;28;20097;-86
2022/09/06 05:56:10;;;;;;;0.45;0.45;;;18.40;99.90;;;;;;4973785;28;20050;-85
2022/09/06 05:58:37;;;;;;;1.25;0.80;;;18.40;99.90;;;;;;4954024;28;20049;-84
2022/09/06 06:01:13;;;;;;;0.55;0.43;;;18.30;99.90;;;;;;4940639;28;20046;-89
2022/09/06 06:03:38;;;;;;;0.80;0.50;;;18.30;99.90;;;;;;4969045;28;20034;-87
2022/09/06 06:06:04;;;;;;;0.73;0.60;;;18.30;99.90;;;;;;4922509;28;20051;-87
2022/09/06 06:08:30;;;;;;;0.35;0.35;;;18.30;99.90;;;;;;4956030;28;20043;-87
2022/09/06 06:10:59;;;;;;;0.67;0.40;;;18.30;99.90;;;;;;4974912;28;20166;-87
2022/09/06 06:13:28;;;;;;;0.52;0.40;;;18.20;99.90;;;;;;4975111;28;20389;-87
2022/09/06 06:15:54;;;;;;;0.65;0.50;;;18.30;99.90;;;;;;4975118;28;20398;-87
2022/09/06 06:18:20;;;;;;;0.60;0.43;;;18.30;99.90;;;;;;4958079;28;20055;-83
2022/09/06 06:20:46;;;;;;;0.70;0.70;;;18.30;99.90;;;;;;4925729;28;20042;-88
2022/09/06 06:23:16;;;;;;;0.57;0.57;;;18.30;99.90;;;;;;4954009;28;20043;-86
2022/09/06 06:25:41;;;;;;;1.30;0.90;;;18.20;99.90;;;;;;4957194;28;20677;-85
2022/09/06 06:28:07;;;;;;;0.50;0.50;;;18.20;99.90;;;;;;4954542;28;20042;-90
2022/09/06 06:30:33;;;;;;;1.17;0.60;;;18.20;99.90;;;;;;4941077;28;20312;-85
2022/09/06 06:32:59;;;;;;;0.80;0.65;;;18.20;99.90;;;;;;4957684;28;20058;-88
2022/09/06 06:35:24;;;;;;;0.47;0.47;;;18.20;99.90;;;;;;4974807;28;20051;-86
2022/09/06 06:37:50;;;;;;;1.90;0.90;;;18.20;99.90;;;;;;4956604;28;20644;-88
2022/09/06 06:40:16;;;;;;;0.90;0.60;;;18.20;99.90;;;;;;4956983;28;20305;-86
2022/09/06 06:42:41;;;;;;;0.70;0.70;;;18.20;99.90;;;;;;4956085;28;20106;-86
2022/09/06 06:45:07;;;;;;;1.98;1.27;;;18.20;99.90;;;;;;4974272;28;20047;-85
2022/09/06 06:47:33;;;;;;;1.88;0.50;;;18.10;99.90;;;;;;4974062;28;20053;-83
2022/09/06 06:49:59;;;;;;;2.17;1.00;;;18.10;99.90;;;;;;4953047;28;20074;-83
2022/09/06 06:52:24;;;;;;;0.52;0.50;;;18.20;99.90;;;;;;4956808;28;20318;-85
2022/09/06 06:54:50;;;;;;;2.33;0.82;;;18.20;99.90;;;;;;4972274;28;20503;-83
2022/09/06 06:57:16;;;;;;;0.60;0.40;;;18.30;99.90;;;;;;4974210;28;20051;-85
2022/09/06 06:59:42;;;;;;;1.50;1.05;;;18.30;99.90;;;;;;4956382;28;20093;-85
2022/09/06 07:02:08;;;;;;;0.55;0.55;;;18.30;99.90;;;;;;4974322;28;20046;-87
2022/09/06 07:04:33;;;;;;;1.55;0.63;;;18.30;99.90;;;;;;4974092;28;20049;-83
2022/09/06 07:06:59;;;;;;;0.90;0.67;;;18.40;99.90;;;;;;4974437;28;20057;-86
2022/09/06 07:09:25;;;;;;;1.60;0.60;;;18.40;99.90;;;;;;4973134;28;20067;-85
2022/09/06 07:11:52;;;;;;;;;;;18.50;99.90;;;;;;4971583;28;20053;-86
2022/09/06 07:14:18;;;;;;;1.58;0.93;;;18.50;99.90;;;;;;4936483;28;19922;-85
2022/09/06 07:16:44;;;;;;;1.13;0.77;;;18.60;99.90;;;;;;4971501;28;20051;-85
2022/09/06 07:19:10;;;;;;;0.70;0.57;;;18.70;99.90;;;;;;4956399;28;20121;-84
2022/09/06 07:21:36;;;;;;;0.70;0.70;;;18.70;99.90;;;;;;4956927;28;20157;-84
2022/09/06 07:24:03;;;;;;;2.05;0.60;;;18.70;99.90;;;;;;4971877;28;20442;-83
2022/09/06 07:26:29;;;;;;;0.47;0.47;;;18.80;99.90;;;;;;4955379;28;20133;-83
2022/09/06 07:28:56;;;;;;;;;;;18.90;99.90;;;;;;4953190;28;20048;-82
2022/09/06 07:31:23;;;;;;;0.95;0.60;;;19.00;99.90;;;;;;4954069;28;20381;-82
2022/09/06 07:33:48;;;;;;;0.82;0.68;;;19.20;99.90;;;;;;4973379;28;20054;-82
2022/09/06 07:36:14;;;;;;;1.55;0.60;;;19.60;99.90;;;;;;4955941;28;20043;-84
2022/09/06 07:38:40;;;;;;;0.55;0.47;;;20.00;99.90;;;;;;4940332;28;20076;-84
2022/09/06 07:41:08;;;;;;;1.45;0.70;;;20.40;99.90;;;;;;4973859;28;20068;-84
2022/09/06 07:43:35;;;;;;;1.02;0.60;;;20.70;99.90;;;;;;4973647;28;20042;-84
2022/09/06 07:46:06;;;;;;;1.02;0.93;;;21.00;99.90;;;;;;4973122;28;20055;-84
2022/09/06 07:48:34;;;;;;;0.68;0.68;;;21.40;99.90;;;;;;4955961;28;20042;-84
2022/09/06 07:51:15;;;;;;;1.50;0.80;;;21.60;99.90;;;;;;4973125;28;20601;-84
2022/09/06 07:53:42;;;;;;;0.50;0.50;;;21.90;99.90;;;;;;4973209;28;20489;-84
2022/09/06 07:56:10;;;;;;;1.25;0.70;;;22.20;99.90;;;;;;4956468;28;20051;-84
2022/09/06 07:58:36;;;;;;;1.00;0.90;;;22.30;99.90;;;;;;4973782;28;20051;-84
2022/09/06 08:01:15;;;;;;;;;;;22.40;99.90;;;;;;4956534;28;20976;-84
2022/09/06 08:03:42;;;;;;;1.10;0.77;;;22.60;99.90;;;;;;4956222;28;19922;-85
2022/09/06 08:06:07;;;;;;;1.40;0.85;;;22.60;99.90;;;;;;4973434;28;20139;-84
2022/09/06 08:08:34;;;;;;;0.73;0.70;;;22.60;99.90;;;;;;4956297;28;20082;-84
2022/09/06 08:11:00;;;;;;;0.80;0.80;;;22.60;99.90;;;;;;4955803;28;20078;-84
2022/09/06 08:13:25;;;;;;;0.75;0.75;;;22.60;99.90;;;;;;4954522;28;20059;-84
2022/09/06 08:16:01;;;;;;;0.73;0.70;;;22.60;99.90;;;;;;4952549;28;20055;-84
2022/09/06 08:18:27;;;;;;;0.80;0.75;;;22.60;99.90;;;;;;4955126;28;20054;-84
2022/09/06 08:20:53;;;;;;;0.68;0.68;;;22.70;99.90;;;;;;4955649;28;20046;-84
2022/09/06 08:23:19;;;;;;;0.85;0.57;;;22.80;99.90;;;;;;4975941;28;20516;-84
2022/09/06 08:25:56;;;;;;;1.13;0.93;;;22.80;99.90;;;;;;4959922;28;20058;-84
2022/09/06 08:28:21;;;;;;;0.93;0.60;;;22.90;99.90;;;;;;4977249;28;20050;-84
2022/09/06 08:30:47;;;;;;;1.48;0.75;;;22.90;99.90;;;;;;4959291;28;20485;-84
2022/09/06 08:33:14;;;;;;;0.80;0.65;;;22.90;99.90;;;;;;4960085;28;20121;-84
2022/09/06 08:35:40;;;;;;;1.00;0.88;;;22.90;99.90;;;;;;4942607;28;20114;-84
2022/09/06 08:38:06;;;;;;;0.93;0.80;;;22.90;99.90;;;;;;4920891;29;20058;-84
2022/09/06 08:40:31;;;;;;;1.08;0.82;;;22.90;99.90;;;;;;4973918;28;20049;-84
2022/09/06 08:42:57;;;;;;;0.68;0.68;;;22.90;99.90;;;;;;4943210;28;20046;-84
2022/09/06 08:45:23;;;;;;;1.02;0.90;;;23.00;99.90;;;;;;4976685;28;20536;-84
2022/09/06 08:47:51;;;;;;;;;;;23.10;99.90;;;;;;4976708;28;20050;-84
2022/09/06 08:50:17;;;;;;;;;;;23.20;99.90;;;;;;4977211;28;19926;-84
2022/09/06 08:53:01;;;;;;;0.73;0.73;;;23.40;99.90;;;;;;4959632;28;19944;-84
2022/09/06 08:55:43;;;;;;;1.05;0.80;;;23.50;99.90;;;;;;4976702;28;20050;-84
2022/09/06 08:58:30;;;;;;;0.70;0.70;;;23.50;99.90;;;;;;4959070;28;20388;-84
2022/09/06 09:01:08;;;;;;;0.68;0.52;;;23.70;99.90;;;;;;4946653;29;20055;-84
2022/09/06 09:03:37;;;;;;;0.82;0.63;;;23.70;99.90;;;;;;4974603;28;20047;-84
2022/09/06 09:06:04;;;;;;;0.52;0.50;;;23.60;99.90;;;;;;4942943;28;20043;-84
2022/09/06 09:09:00;;;;;;;0.88;0.65;;;23.60;99.90;;;;;;4959357;28;20046;-84
2022/09/06 09:11:28;;;;;;;0.52;0.52;;;23.50;99.90;;;;;;4976554;28;20070;-84
2022/09/06 09:14:06;;;;;;;1.15;0.70;;;23.50;99.90;;;;;;4958275;28;20051;-84
2022/09/06 09:16:33;;;;;;;0.57;0.57;;;23.50;99.90;;;;;;4943482;28;20058;-84
2022/09/06 09:19:02;;;;;;;0.85;0.50;;;23.50;99.90;;;;;;4942689;28;20496;-84
2022/09/06 09:21:31;;;;;;;0.60;0.60;;;23.40;99.90;;;;;;4976094;28;20094;-83
2022/09/06 09:24:01;;;;;;;0.45;0.45;;;23.30;99.90;;;;;;4975541;28;20039;-84
2022/09/06 09:26:34;;;;;;;0.68;0.65;;;23.30;99.90;;;;;;4974406;28;20546;-84
2022/09/06 09:29:12;;;;;;;1.20;0.77;;;23.40;99.90;;;;;;4958576;28;20517;-84
2022/09/06 09:31:39;;;;;;;0.85;0.77;;;23.60;99.90;;;;;;4975976;28;20105;-83
2022/09/06 09:34:09;;;;;;;0.65;0.55;;;23.90;99.90;;;;;;4942258;28;20047;-84
2022/09/06 09:36:35;;;;;;;0.82;0.47;;;24.10;99.90;;;;;;4958772;28;20086;-84
2022/09/06 09:39:08;;;;;;;0.90;0.70;;;24.20;99.80;;;;;;4946200;29;20051;-84
2022/09/06 09:41:37;;;;;;;0.73;0.55;;;24.40;99.20;;;;;;4940868;28;20072;-84
2022/09/06 09:44:14;;;;;;;0.40;0.40;;;24.50;99.30;;;;;;4975300;28;20394;-84
2022/09/06 09:46:40;;;;;;;0.45;0.45;;;24.70;98.70;;;;;;4958961;28;20055;-84
2022/09/06 09:49:21;;;;;;;0.60;0.60;;;24.80;98.70;;;;;;4958018;28;20374;-84
2022/09/06 09:52:06;;;;;;;0.50;0.50;;;24.80;98.40;;;;;;4942693;28;20130;-84
2022/09/06 09:54:36;;;;;;;0.63;0.63;;;25.00;97.30;;;;;;4975680;28;20042;-83
2022/09/06 09:57:12;;;;;;;0.47;0.47;;;25.10;97.80;;;;;;4973181;28;20464;-84
2022/09/06 09:59:49;;;;;;;0.30;0.30;;;25.20;97.50;;;;;;4942569;28;20039;-83
2022/09/06 10:02:23;;;;;;;0.60;0.60;;;25.30;97.20;;;;;;4974977;28;20278;-83
2022/09/06 10:04:52;;;;;;;0.40;0.40;;;25.40;96.30;;;;;;4958008;28;20493;-83
2022/09/06 10:07:21;;;;;;;0.50;0.50;;;25.50;97.00;;;;;;4974535;28;20485;-84
2022/09/06 10:10:00;;;;;;;0.47;0.40;;;25.60;96.80;;;;;;4974213;28;20503;-83
2022/09/06 10:12:35;;;;;;;0.60;0.60;;;25.60;96.60;;;;;;4958525;28;20444;-83
2022/09/06 10:15:01;;;;;;;0.60;0.60;;;25.70;96.60;;;;;;4973470;28;20386;-84
2022/09/06 10:17:33;;;;;;;0.30;0.30;;;25.80;96.40;;;;;;4957949;28;20059;-83
2022/09/06 10:20:08;;;;;;;0.20;0.20;;;25.80;95.40;;;;;;4957733;28;20050;-85
2022/09/06 10:22:48;;;;;;;0.63;0.43;;;25.80;95.10;;;;;;4974813;28;20497;-83
2022/09/06 10:25:30;;;;;;;0.20;0.20;;;25.80;94.90;;;;;;4956815;28;20042;-83
2022/09/06 10:28:10;;;;;;;0.32;0.32;;;25.80;93.80;;;;;;4944290;29;20107;-83
2022/09/06 10:30:59;;;;;;;0.30;0.30;;;25.90;94.30;;;;;;4938908;29;20051;-84
2022/09/06 10:33:57;;;;;;;0.38;0.38;;;25.90;94.20;;;;;;4922094;29;20051;-84
2022/09/06 10:36:38;;;;;;;0.52;0.43;;;26.00;93.20;;;;;;4938069;29;20451;-83
2022/09/06 10:39:37;;;;;;;0.40;0.40;;;26.10;93.60;;;;;;4937976;29;20055;-84
2022/09/06 10:42:40;;;;;;;0.65;0.40;;;26.10;93.20;;;;;;4922203;29;20047;-84
2022/09/06 10:45:30;;;;;;;0.90;0.90;;;26.30;93.40;;;;;;4937132;29;20490;-84
2022/09/06 10:48:17;;;;;;;0.65;0.32;;;26.40;92.50;;;;;;4938320;29;20562;-83
2022/09/06 10:50:46;;;;;;;0.75;0.40;;;26.40;92.90;;;;;;4938200;29;20491;-83
2022/09/06 10:53:20;;;;;;;0.45;0.38;;;26.50;93.10;;;;;;4921929;29;20103;-84
2022/09/06 10:55:51;;;;;;;0.50;0.50;;;26.50;92.70;;;;;;4955234;29;20442;-84
2022/09/06 10:58:25;;;;;;;0.50;0.50;;;26.50;92.90;;;;;;4954693;28;20047;-84
2022/09/06 11:00:54;;;;;;;0.30;0.30;;;26.60;92.50;;;;;;4938083;29;20051;-85
2022/09/06 11:03:41;;;;;;;0.57;0.52;;;26.70;92.80;;;;;;4937478;29;20490;-85
2022/09/06 11:06:08;;;;;;;;;;;26.70;92.00;;;;;;4955266;28;20078;-82
2022/09/06 11:08:39;;;;;;;0.45;0.45;;;26.90;91.80;;;;;;4954591;29;20415;-86
2022/09/06 11:11:12;;;;;;;0.40;0.40;;;27.00;92.40;;;;;;4949195;28;20039;-86
2022/09/06 11:13:38;;;;;;;0.95;0.60;;;27.00;92.30;;;;;;4974279;28;20137;-84
2022/09/06 11:16:16;;;;;;;0.60;0.60;;;27.10;92.30;;;;;;4973847;28;20121;-85
2022/09/06 11:18:54;;;;;;;0.75;0.50;;;27.20;92.00;;;;;;4956627;28;20397;-88
2022/09/06 11:21:45;;;;;;;0.40;0.30;;;27.20;91.70;;;;;;4956234;28;20401;-87
2022/09/06 11:24:30;;;;;;;0.30;0.30;;;27.30;91.80;;;;;;4953282;28;20437;-86
2022/09/06 11:27:11;;;;;;;0.22;0.22;;;27.50;91.50;;;;;;4938362;29;20087;-87
2022/09/06 11:29:41;;;;;;;0.40;0.40;;;27.60;90.40;;;;;;4954163;28;20492;-89
2022/09/06 11:32:35;;;;;;;0.22;0.22;;;27.70;90.50;;;;;;4972856;28;20047;-90
2022/09/06 11:35:06;;;;;;;0.35;0.28;;;27.80;90.40;;;;;;4955075;28;20138;-91
2022/09/06 11:37:38;;;;;;;0.45;0.35;;;27.90;90.50;;;;;;4938471;29;20058;-92
2022/09/06 11:40:13;;;;;;;0.68;0.68;;;27.80;90.30;;;;;;4973044;28;20050;-90
2022/09/06 11:42:59;;;;;;;0.40;0.40;;;27.70;89.50;;;;;;4940264;28;20480;-85
2022/09/06 11:45:45;;;;;;;0.47;0.38;;;27.80;89.20;;;;;;4920475;29;20513;-85
2022/09/06 11:48:33;;;;;;;0.30;0.30;;;27.90;88.10;;;;;;4944205;28;20098;-86
2022/09/06 11:51:00;;;;;;;0.80;0.45;;;28.00;87.40;;;;;;4958159;28;20118;-87
2022/09/06 11:53:35;;;;;;;0.50;0.40;;;27.90;89.60;;;;;;4940177;28;20054;-87
2022/09/06 11:56:00;;;;;;;0.47;0.47;;;27.90;88.90;;;;;;4974811;28;20073;-87
2022/09/06 11:58:42;;;;;;;0.20;0.20;;;28.00;89.70;;;;;;4940640;28;20485;-87
2022/09/06 12:01:11;;;;;;;0.20;0.20;;;28.10;88.10;;;;;;4930161;29;20051;-87
2022/09/06 12:03:52;;;;;;;0.30;0.30;;;28.10;88.60;;;;;;4925604;29;20056;-87
2022/09/06 12:06:19;;;;;;;0.45;0.45;;;28.20;85.80;;;;;;4938256;29;20079;-87
2022/09/06 12:08:46;;;;;;;0.32;0.32;;;28.20;87.60;;;;;;4956915;28;20047;-88
2022/09/06 12:11:22;;;;;;;0.20;0.20;;;28.20;87.90;;;;;;4977382;28;20107;-88
2022/09/06 12:14:02;;;;;;;0.30;0.30;;;28.40;84.90;;;;;;4976893;28;20050;-87
2022/09/06 12:16:54;;;;;;;0.43;0.40;;;28.40;86.60;;;;;;4956919;28;20478;-88
2022/09/06 12:19:40;;;;;;;0.35;0.35;;;28.40;82.10;;;;;;4943715;28;20055;-89
2022/09/06 12:22:25;;;;;;;0.57;0.40;;;28.30;84.00;;;;;;4956718;28;20062;-87
2022/09/06 12:24:59;;;;;;;0.32;0.30;;;28.40;84.70;;;;;;4959291;28;20043;-85
2022/09/06 12:27:38;;;;;;;0.57;0.57;;;28.50;85.90;;;;;;4955824;28;20521;-85
2022/09/06 12:30:28;;;;;;;0.28;0.28;;;28.70;84.40;;;;;;4974154;28;20074;-86
2022/09/06 12:32:54;;;;;;;0.40;0.40;;;28.80;84.00;;;;;;4943945;28;20477;-86
2022/09/06 12:35:24;;;;;;;0.28;0.15;;;28.80;85.00;;;;;;4943528;28;20062;-85
2022/09/06 12:37:55;;;;;;;0.63;0.50;;;29.00;83.90;;;;;;4944144;28;20057;-86
2022/09/06 12:40:23;;;;;;;0.40;0.40;;;29.00;84.20;;;;;;4959460;28;20134;-85
2022/09/06 12:42:50;;;;;;;0.20;0.20;;;29.00;83.70;;;;;;4941987;28;20062;-86
2022/09/06 12:45:18;;;;;;;0.30;0.30;;;29.00;83.60;;;;;;4959526;28;20043;-86
2022/09/06 12:47:44;;;;;;;0.20;0.17;;;29.10;82.30;;;;;;4976342;28;20046;-86
2022/09/06 12:50:17;;;;;;;0.65;0.30;;;29.20;83.00;;;;;;4976790;28;20138;-86
2022/09/06 12:52:52;;;;;;;0.52;0.52;;;29.10;81.50;;;;;;4942987;28;20093;-86
2022/09/06 12:55:18;;;;;;;0.32;0.32;;;29.00;80.60;;;;;;4959697;28;20111;-86
2022/09/06 12:58:05;;;;;;;0.30;0.30;;;28.90;82.50;;;;;;4958984;28;20046;-86
2022/09/06 13:00:35;;;;;;;0.30;0.30;;;29.00;79.70;;;;;;4976088;28;20090;-87
2022/09/06 13:03:28;;;;;;;0.32;0.32;;;28.90;80.20;;;;;;4958109;28;20477;-86
2022/09/06 13:05:56;;;;;;;0.30;0.30;;;28.70;79.40;;;;;;4940095;28;20043;-85
2022/09/06 13:08:44;;;;;;;0.30;0.30;;;28.70;82.20;;;;;;4956560;28;20061;-85